createdAt,value
2019-03-13T00:00:57.883Z,5.33
2019-03-13T00:03:25.074Z,4.07
2019-03-13T00:05:52.424Z,6.60
2019-03-13T00:08:19.491Z,5.77
2019-03-13T00:10:46.564Z,5.03
2019-03-13T00:13:13.662Z,4.57
2019-03-13T00:15:41.023Z,5.33
2019-03-13T00:18:08.154Z,4.07
2019-03-13T00:20:36.132Z,3.80
2019-03-13T00:23:03.250Z,5.10
2019-03-13T00:25:30.342Z,5.83
2019-03-13T00:27:57.525Z,5.87
2019-03-13T00:30:24.683Z,5.50
2019-03-13T00:32:51.823Z,4.27
2019-03-13T00:35:19.072Z,3.80
2019-03-13T00:37:46.622Z,4.13
2019-03-13T00:40:13.871Z,4.70
2019-03-13T00:42:40.989Z,3.70
2019-03-13T00:45:12.352Z,4.93
2019-03-13T00:47:39.431Z,4.03
2019-03-13T00:50:10.436Z,4.53
2019-03-13T00:52:37.513Z,4.90
2019-03-13T00:55:05.504Z,5.17
2019-03-13T00:57:32.651Z,7.50
2019-03-13T00:59:59.715Z,6.20
2019-03-13T01:02:48.442Z,5.50
2019-03-13T01:05:17.298Z,4.33
2019-03-13T01:07:44.503Z,5.20
2019-03-13T01:10:11.872Z,6.03
2019-03-13T01:12:38.938Z,5.10
2019-03-13T01:15:08.885Z,5.00
2019-03-13T01:17:38.767Z,6.27
2019-03-13T01:20:07.474Z,4.87
2019-03-13T01:22:34.610Z,4.77
2019-03-13T01:25:01.773Z,4.33
2019-03-13T01:27:28.940Z,5.30
2019-03-13T01:29:56.033Z,4.27
2019-03-13T01:32:43.333Z,4.87
2019-03-13T01:35:21.952Z,5.47
2019-03-13T01:37:49.155Z,4.17
2019-03-13T01:40:16.344Z,3.87
2019-03-13T01:42:43.421Z,4.93
2019-03-13T01:45:10.693Z,4.37
2019-03-13T01:47:37.735Z,4.27
2019-03-13T01:50:10.362Z,5.23
2019-03-13T01:52:57.142Z,4.03
2019-03-13T01:55:24.249Z,6.17
2019-03-13T01:57:51.293Z,4.37
2019-03-13T02:00:18.864Z,4.37
2019-03-13T02:02:45.922Z,3.87
2019-03-13T02:05:13.074Z,4.40
2019-03-13T02:07:40.203Z,4.50
2019-03-13T02:10:10.740Z,5.63
2019-03-13T02:12:37.895Z,5.00
2019-03-13T02:15:09.515Z,10.60
2019-03-13T02:17:36.698Z,5.00
2019-03-13T02:20:07.774Z,4.80
2019-03-13T02:22:35.042Z,5.80
2019-03-13T02:25:03.703Z,6.43
2019-03-13T02:27:31.402Z,3.77
2019-03-13T02:29:58.541Z,5.43
2019-03-13T02:32:25.655Z,4.30
2019-03-13T02:34:52.772Z,4.87
2019-03-13T02:37:19.841Z,2.60
2019-03-13T02:39:46.990Z,7.70
2019-03-13T02:42:14.330Z,4.13
2019-03-13T02:44:41.448Z,5.10
2019-03-13T02:47:08.449Z,7.20
2019-03-13T02:49:35.549Z,6.23
2019-03-13T02:52:02.769Z,8.27
2019-03-13T02:54:29.889Z,5.73
2019-03-13T02:56:57.078Z,4.50
2019-03-13T02:59:24.189Z,5.37
2019-03-13T03:01:53.089Z,3.30
2019-03-13T03:04:20.189Z,5.70
2019-03-13T03:06:47.291Z,4.80
2019-03-13T03:09:14.385Z,5.00
2019-03-13T03:11:41.585Z,7.73
2019-03-13T03:14:08.807Z,6.63
2019-03-13T03:16:51.073Z,4.97
2019-03-13T03:19:18.227Z,6.30
2019-03-13T03:21:45.408Z,8.57
2019-03-13T03:24:12.554Z,7.03
2019-03-13T03:26:39.837Z,7.73
2019-03-13T03:29:07.053Z,4.93
2019-03-13T03:31:34.349Z,8.43
2019-03-13T03:34:02.161Z,5.00
2019-03-13T03:36:29.329Z,5.53
2019-03-13T03:38:56.508Z,3.87
2019-03-13T03:41:23.607Z,7.83
2019-03-13T03:43:50.766Z,6.90
2019-03-13T03:46:18.019Z,5.70
2019-03-13T03:48:45.109Z,9.10
2019-03-13T03:51:12.379Z,5.17
2019-03-13T03:53:39.619Z,6.20
2019-03-13T03:56:07.298Z,4.50
2019-03-13T03:58:34.534Z,7.97
2019-03-13T04:01:01.849Z,6.87
2019-03-13T04:03:29.190Z,7.37
2019-03-13T04:05:57.007Z,5.43
2019-03-13T04:08:24.557Z,7.13
2019-03-13T04:10:51.683Z,6.37
2019-03-13T04:13:18.943Z,5.87
2019-03-13T04:15:46.183Z,6.87
2019-03-13T04:18:13.610Z,5.83
2019-03-13T04:20:41.424Z,5.50
2019-03-13T04:23:08.645Z,9.07
2019-03-13T04:25:35.850Z,9.10
2019-03-13T04:28:04.092Z,8.70
2019-03-13T04:30:31.350Z,11.07
2019-03-13T04:32:58.603Z,8.93
2019-03-13T04:35:25.743Z,10.53
2019-03-13T04:37:53.022Z,9.83
2019-03-13T04:40:20.483Z,8.20
2019-03-13T04:42:47.610Z,7.63
2019-03-13T04:45:14.772Z,8.17
2019-03-13T04:47:42.034Z,7.33
2019-03-13T04:50:14.429Z,7.43
2019-03-13T04:52:41.762Z,9.17
2019-03-13T04:55:14.594Z,9.83
2019-03-13T04:57:41.702Z,8.17
2019-03-13T05:00:17.863Z,7.60
2019-03-13T05:02:45.423Z,7.80
2019-03-13T05:05:48.202Z,8.57
2019-03-13T05:08:29.267Z,6.10
2019-03-13T05:10:56.443Z,10.10
2019-03-13T05:13:23.591Z,7.07
2019-03-13T05:15:50.883Z,7.37
2019-03-13T05:18:18.210Z,7.00
2019-03-13T05:20:45.483Z,6.90
2019-03-13T05:23:13.003Z,8.40
2019-03-13T05:25:40.203Z,7.10
2019-03-13T05:28:07.376Z,7.83
2019-03-13T05:30:34.611Z,7.80
2019-03-13T05:33:01.918Z,6.40
2019-03-13T05:35:29.078Z,8.27
2019-03-13T05:37:56.224Z,13.10
2019-03-13T05:40:23.496Z,9.40
2019-03-13T05:42:50.696Z,7.50
2019-03-13T05:45:17.877Z,9.93
2019-03-13T05:47:45.096Z,7.27
2019-03-13T05:50:12.364Z,7.50
2019-03-13T05:52:39.540Z,8.77
2019-03-13T05:55:07.142Z,8.77
2019-03-13T05:57:34.323Z,7.77
2019-03-13T06:00:01.976Z,9.47
2019-03-13T06:02:29.216Z,8.77
2019-03-13T06:04:56.640Z,9.13
2019-03-13T06:07:23.816Z,9.03
2019-03-13T06:09:50.941Z,11.37
2019-03-13T06:12:18.156Z,8.90
2019-03-13T06:14:45.316Z,8.20
2019-03-13T06:17:12.517Z,9.97
2019-03-13T06:19:39.822Z,10.17
2019-03-13T06:22:06.996Z,10.13
2019-03-13T06:24:34.224Z,10.07
2019-03-13T06:27:01.336Z,9.37
2019-03-13T06:29:31.500Z,9.50
2019-03-13T06:31:58.139Z,8.13
2019-03-13T06:34:25.318Z,4.67
2019-03-13T06:36:52.672Z,5.00
2019-03-13T06:39:19.917Z,5.23
2019-03-13T06:41:47.105Z,5.10
2019-03-13T06:44:14.501Z,5.93
2019-03-13T06:46:41.725Z,4.23
2019-03-13T06:49:09.062Z,2.20
2019-03-13T06:51:36.237Z,0.80
2019-03-13T06:54:03.679Z,1.20
2019-03-13T06:56:30.922Z,1.10
2019-03-13T06:59:02.454Z,0.80
2019-03-13T07:01:46.866Z,0.93
2019-03-13T07:04:15.878Z,1.37
2019-03-13T07:06:47.957Z,2.37
2019-03-13T07:09:17.000Z,0.70
2019-03-13T07:11:48.897Z,2.10
2019-03-13T07:14:17.863Z,0.80
2019-03-13T07:16:59.062Z,1.30
2019-03-13T07:19:37.268Z,2.37
2019-03-13T07:22:15.083Z,1.37
2019-03-13T07:25:00.923Z,2.20
2019-03-13T07:27:36.001Z,2.53
2019-03-13T07:30:10.323Z,1.87
2019-03-13T07:32:39.402Z,1.43
2019-03-13T07:35:12.436Z,2.00
2019-03-13T07:37:47.677Z,1.30
2019-03-13T07:40:16.635Z,1.80
2019-03-13T07:42:45.657Z,1.53
2019-03-13T07:45:14.975Z,0.90
2019-03-13T07:47:53.075Z,1.20
2019-03-13T07:50:22.086Z,1.43
2019-03-13T07:52:53.986Z,1.00
2019-03-13T07:55:35.262Z,0.50
2019-03-13T07:58:16.484Z,0.67
2019-03-13T08:00:54.563Z,0.97
2019-03-13T08:03:23.550Z,0.47
2019-03-13T08:06:09.227Z,1.87
2019-03-13T08:08:50.270Z,1.00
2019-03-13T08:11:28.482Z,0.90
2019-03-13T08:14:03.303Z,1.47
2019-03-13T08:16:34.896Z,1.23
2019-03-13T08:19:16.170Z,0.80
2019-03-13T08:21:45.249Z,1.07
2019-03-13T08:24:16.889Z,0.50
2019-03-13T08:27:01.365Z,0.70
2019-03-13T08:29:36.624Z,0.97
2019-03-13T08:32:22.498Z,0.60
2019-03-13T08:34:51.526Z,0.97
2019-03-13T08:37:23.657Z,0.77
2019-03-13T08:39:55.499Z,0.77
2019-03-13T08:42:33.308Z,0.60
2019-03-13T08:45:08.077Z,0.57
2019-03-13T08:47:53.578Z,1.40
2019-03-13T08:50:34.945Z,1.70
2019-03-13T08:53:12.937Z,1.97
2019-03-13T08:55:48.102Z,1.17
2019-03-13T08:58:33.941Z,1.00
2019-03-13T09:01:02.986Z,0.63
2019-03-13T09:03:32.394Z,1.23
2019-03-13T09:06:18.420Z,0.77
2019-03-13T09:11:58.115Z,0.93
2019-03-13T09:14:27.138Z,1.03
2019-03-13T09:17:13.337Z,1.50
2019-03-13T09:19:42.328Z,1.17
2019-03-13T09:22:17.201Z,1.03
2019-03-13T09:24:49.657Z,0.60
2019-03-13T09:27:21.799Z,1.27
2019-03-13T09:30:05.884Z,1.00
2019-03-13T09:32:51.552Z,1.53
2019-03-13T09:35:23.614Z,2.23
2019-03-13T09:38:09.312Z,1.27
2019-03-13T09:40:44.583Z,1.80
2019-03-13T09:43:20.144Z,1.30
2019-03-13T09:45:58.444Z,1.53
2019-03-13T09:48:45.504Z,1.13
2019-03-13T09:51:23.864Z,1.03
2019-03-13T09:53:55.933Z,0.73
2019-03-13T09:56:27.952Z,1.83
2019-03-13T09:59:03.074Z,0.70
2019-03-13T10:01:32.088Z,1.33
2019-03-13T10:04:01.085Z,0.80
2019-03-13T10:09:24.972Z,0.60
2019-03-13T10:12:05.573Z,0.70
2019-03-13T10:14:49.885Z,1.00
2019-03-13T10:17:27.832Z,1.03
2019-03-13T10:20:02.865Z,1.40
2019-03-13T10:22:49.829Z,1.43
2019-03-13T10:25:25.466Z,3.37
2019-03-13T10:28:00.686Z,1.83
2019-03-13T10:30:35.573Z,2.20
2019-03-13T10:33:16.757Z,1.30
2019-03-13T10:35:45.905Z,1.40
2019-03-13T10:38:29.766Z,3.03
2019-03-13T10:41:15.366Z,1.30
2019-03-13T10:43:44.810Z,0.90
2019-03-13T10:46:28.925Z,2.47
2019-03-13T10:49:00.949Z,1.90
2019-03-13T10:51:35.809Z,1.27
2019-03-13T10:54:36.451Z,1.17
2019-03-13T10:57:15.174Z,1.43
2019-03-13T10:59:47.154Z,0.80
2019-03-13T11:02:28.567Z,1.00
2019-03-13T11:05:06.854Z,1.00
2019-03-13T11:07:35.910Z,1.37
2019-03-13T11:10:09.773Z,1.13
2019-03-13T11:12:41.748Z,1.20
2019-03-13T11:15:23.666Z,1.20
2019-03-13T11:17:52.758Z,0.93
2019-03-13T11:20:38.433Z,1.50
2019-03-13T11:23:07.429Z,2.47
2019-03-13T11:25:36.931Z,0.90
2019-03-13T11:28:05.925Z,1.03
2019-03-13T11:30:44.573Z,1.33
2019-03-13T11:33:16.119Z,1.73
2019-03-13T11:36:01.760Z,0.70
2019-03-13T11:38:30.787Z,1.20
2019-03-13T11:41:06.039Z,1.20
2019-03-13T11:43:35.019Z,0.80
2019-03-13T11:46:04.011Z,1.03
2019-03-13T11:48:42.056Z,0.87
2019-03-13T11:51:13.919Z,1.20
2019-03-13T11:53:45.756Z,1.50
2019-03-13T11:56:31.477Z,0.70
2019-03-13T11:59:12.524Z,0.73
2019-03-13T12:01:47.636Z,0.60
2019-03-13T12:04:33.478Z,1.07
2019-03-13T12:07:08.565Z,1.60
2019-03-13T12:09:55.459Z,0.90
2019-03-13T12:12:30.938Z,0.90
2019-03-13T12:14:59.938Z,0.70
2019-03-13T12:17:35.057Z,2.50
2019-03-13T12:20:04.357Z,1.27
2019-03-13T12:22:33.740Z,0.53
2019-03-13T12:25:05.699Z,1.00
2019-03-13T12:27:51.459Z,1.27
2019-03-13T12:30:37.019Z,1.00
2019-03-13T12:33:06.019Z,1.03
2019-03-13T12:35:34.998Z,0.70
2019-03-13T12:38:09.800Z,0.90
2019-03-13T12:40:55.224Z,1.90
2019-03-13T12:43:29.943Z,1.80
2019-03-13T12:46:13.901Z,1.80
2019-03-13T12:48:45.859Z,1.87
2019-03-13T12:51:26.839Z,1.97
2019-03-13T12:54:01.778Z,0.70
2019-03-13T12:56:47.379Z,0.67
2019-03-13T12:59:19.079Z,0.60
2019-03-13T13:01:50.778Z,1.57
2019-03-13T13:04:22.558Z,1.07
2019-03-13T13:07:03.840Z,1.23
2019-03-13T13:09:44.964Z,1.83
2019-03-13T13:12:14.069Z,0.63
2019-03-13T13:14:59.935Z,1.60
2019-03-13T13:17:45.558Z,1.20
2019-03-13T13:20:13.557Z,0.50
2019-03-13T13:22:40.718Z,2.50
2019-03-13T13:25:09.840Z,1.93
2019-03-13T13:27:36.957Z,0.40
2019-03-13T13:30:12.438Z,1.13
2019-03-13T13:32:39.698Z,1.03
2019-03-13T13:35:08.978Z,1.13
2019-03-13T13:37:36.419Z,0.67
2019-03-13T13:40:08.719Z,1.37
2019-03-13T13:42:35.979Z,1.30
2019-03-13T13:45:08.099Z,1.20
2019-03-13T13:47:35.259Z,1.00
2019-03-13T13:50:02.379Z,0.83
2019-03-13T13:52:29.678Z,6.77
2019-03-13T13:54:56.880Z,1.60
2019-03-13T13:57:24.058Z,3.70
2019-03-13T13:59:51.197Z,1.03
2019-03-13T14:02:18.357Z,1.00
2019-03-13T14:04:46.140Z,1.60
2019-03-13T14:07:13.438Z,1.90
2019-03-13T14:09:40.618Z,1.40
2019-03-13T14:12:07.758Z,3.10
2019-03-13T14:14:34.958Z,1.27
2019-03-13T14:17:02.152Z,1.17
2019-03-13T14:19:29.397Z,2.10
2019-03-13T14:21:56.566Z,1.43
2019-03-13T14:24:23.700Z,0.87
2019-03-13T14:26:50.839Z,1.90
2019-03-13T14:29:17.818Z,1.50
2019-03-13T14:31:45.070Z,1.00
2019-03-13T14:34:12.184Z,0.70
2019-03-13T14:36:39.456Z,2.37
2019-03-13T14:39:07.815Z,0.73
2019-03-13T14:41:34.941Z,1.70
2019-03-13T14:44:02.119Z,1.07
2019-03-13T14:46:29.337Z,1.73
2019-03-13T14:48:56.487Z,1.37
2019-03-13T14:51:23.606Z,0.77
2019-03-13T14:53:51.036Z,1.17
2019-03-13T14:56:18.220Z,0.50
2019-03-13T14:58:45.400Z,0.63
2019-03-13T15:01:12.521Z,0.80
2019-03-13T15:03:41.346Z,1.43
2019-03-13T15:06:08.697Z,2.27
2019-03-13T15:08:35.802Z,1.20
2019-03-13T15:11:03.529Z,0.50
2019-03-13T15:13:30.577Z,1.20
2019-03-13T15:15:57.777Z,1.37
2019-03-13T15:18:24.947Z,0.90
2019-03-13T15:20:52.547Z,1.20
2019-03-13T15:23:19.727Z,1.37
2019-03-13T15:25:46.928Z,1.90
2019-03-13T15:28:17.252Z,1.23
2019-03-13T15:30:43.263Z,1.80
2019-03-13T15:33:10.391Z,0.83
2019-03-13T15:35:38.138Z,1.17
2019-03-13T15:38:05.416Z,1.23
2019-03-13T15:40:33.360Z,1.77
2019-03-13T15:43:00.594Z,1.03
2019-03-13T15:45:33.918Z,1.57
2019-03-13T15:48:01.052Z,1.40
2019-03-13T15:50:28.836Z,1.17
2019-03-13T15:52:56.210Z,1.50
2019-03-13T15:55:23.418Z,1.07
2019-03-13T15:57:51.070Z,2.03
2019-03-13T16:00:26.805Z,1.93
2019-03-13T16:02:55.688Z,1.23
2019-03-13T16:05:23.083Z,1.50
2019-03-13T16:07:50.226Z,1.47
2019-03-13T16:10:20.982Z,0.73
2019-03-13T16:12:48.291Z,2.30
2019-03-13T16:15:21.003Z,0.80
2019-03-13T16:17:48.181Z,1.23
2019-03-13T16:20:16.778Z,2.13
2019-03-13T16:22:45.918Z,2.27
2019-03-13T16:25:13.675Z,1.53
2019-03-13T16:27:41.172Z,2.17
2019-03-13T16:30:22.548Z,1.30
2019-03-13T16:32:50.004Z,1.87
2019-03-13T16:35:17.306Z,2.30
2019-03-13T16:37:44.845Z,3.47
2019-03-13T16:40:17.362Z,2.00
2019-03-13T16:42:44.722Z,0.93
2019-03-13T16:45:18.397Z,2.60
2019-03-13T16:47:45.783Z,1.40
2019-03-13T16:50:22.943Z,3.00
2019-03-13T16:52:50.300Z,1.87
2019-03-13T16:55:19.021Z,1.67
2019-03-13T16:57:46.511Z,2.10
2019-03-13T17:00:25.969Z,2.57
2019-03-13T17:02:53.508Z,1.70
2019-03-13T17:05:20.852Z,2.47
2019-03-13T17:07:50.125Z,2.10
2019-03-13T17:10:21.227Z,4.77
2019-03-13T17:12:48.417Z,1.57
2019-03-13T17:15:20.330Z,2.87
2019-03-13T17:17:47.588Z,2.17
2019-03-13T17:20:34.628Z,2.70
2019-03-13T17:23:01.787Z,4.10
2019-03-13T17:25:28.970Z,3.53
2019-03-13T17:27:56.108Z,3.10
2019-03-13T17:30:26.507Z,2.47
2019-03-13T17:32:53.846Z,2.87
2019-03-13T17:35:21.054Z,2.57
2019-03-13T17:37:48.434Z,9.60
2019-03-13T17:40:28.426Z,4.50
2019-03-13T17:42:55.682Z,3.00
2019-03-13T17:45:25.949Z,7.80
2019-03-13T17:47:53.910Z,3.53
2019-03-13T17:50:23.067Z,3.87
2019-03-13T17:52:50.307Z,2.87
2019-03-13T17:55:21.114Z,2.30
2019-03-13T17:57:48.327Z,2.90
2019-03-13T18:00:36.556Z,3.23
2019-03-13T18:03:04.375Z,4.73
2019-03-13T18:05:31.515Z,4.67
2019-03-13T18:07:59.079Z,4.07
2019-03-13T18:10:26.318Z,3.20
2019-03-13T18:12:53.516Z,2.37
2019-03-13T18:15:20.664Z,3.73
2019-03-13T18:17:47.881Z,3.03
2019-03-13T18:20:21.135Z,2.30
2019-03-13T18:22:48.495Z,3.57
2019-03-13T18:25:18.239Z,3.23
2019-03-13T18:27:45.015Z,7.97
2019-03-13T18:30:19.358Z,4.17
2019-03-13T18:32:46.643Z,2.70
2019-03-13T18:35:15.060Z,2.00
2019-03-13T18:37:42.222Z,2.77
2019-03-13T18:40:13.642Z,2.33
2019-03-13T18:42:40.821Z,2.43
2019-03-13T18:45:18.325Z,2.93
2019-03-13T18:47:45.544Z,2.80
2019-03-13T18:50:15.220Z,2.00
2019-03-13T18:52:43.199Z,3.00
2019-03-13T18:55:17.946Z,5.27
2019-03-13T18:57:45.439Z,3.77
2019-03-13T19:00:36.042Z,3.60
2019-03-13T19:03:23.100Z,3.17
2019-03-13T19:05:50.309Z,3.83
2019-03-13T19:08:17.419Z,4.30
2019-03-13T19:10:44.571Z,3.97
2019-03-13T19:13:11.766Z,7.67
2019-03-13T19:15:40.386Z,8.37
2019-03-13T19:18:07.935Z,5.83
2019-03-13T19:20:35.102Z,7.17
2019-03-13T19:23:02.306Z,6.40
2019-03-13T19:25:29.526Z,5.47
2019-03-13T19:27:56.787Z,6.10
2019-03-13T19:30:37.562Z,5.27
2019-03-13T19:33:04.065Z,7.27
2019-03-13T19:35:31.750Z,3.93
2019-03-13T19:38:12.436Z,4.07
2019-03-13T19:40:39.613Z,5.50
2019-03-13T19:43:06.892Z,4.03
2019-03-13T19:45:44.414Z,5.07
2019-03-13T19:48:12.334Z,5.67
2019-03-13T19:50:39.474Z,3.27
2019-03-13T19:53:06.633Z,3.53
2019-03-13T19:55:33.812Z,3.90
2019-03-13T19:58:01.012Z,4.10
2019-03-13T20:00:28.553Z,7.57
2019-03-13T20:03:09.033Z,4.50
2019-03-13T20:05:45.476Z,5.27
2019-03-13T20:08:05.698Z,4.63
2019-03-13T20:10:32.892Z,4.07
2019-03-13T20:13:00.329Z,4.80
2019-03-13T20:15:30.273Z,5.80
2019-03-13T20:17:57.393Z,4.70
2019-03-13T20:20:24.703Z,5.90
2019-03-13T20:23:11.532Z,4.40
2019-03-13T20:25:38.914Z,6.87
2019-03-13T20:28:06.333Z,11.50
2019-03-13T20:30:33.954Z,10.90
2019-03-13T20:33:01.253Z,9.80
2019-03-13T20:35:28.432Z,8.73
2019-03-13T20:37:55.794Z,5.13
2019-03-13T20:40:24.626Z,5.27
2019-03-13T20:42:51.818Z,3.63
2019-03-13T20:45:24.394Z,3.47
2019-03-13T20:47:52.354Z,6.83
2019-03-13T20:50:20.536Z,5.07
2019-03-13T20:52:47.992Z,5.13
2019-03-13T20:55:17.612Z,4.57
2019-03-13T20:57:45.252Z,4.70
2019-03-13T21:00:23.758Z,5.47
2019-03-13T21:02:55.972Z,4.10
2019-03-13T21:05:23.453Z,4.13
2019-03-13T21:07:50.613Z,4.80
2019-03-13T21:10:17.929Z,3.57
2019-03-13T21:12:45.188Z,6.80
2019-03-13T21:15:16.448Z,3.30
2019-03-13T21:17:43.649Z,3.07
2019-03-13T21:20:16.548Z,5.40
2019-03-13T21:22:44.105Z,3.80
2019-03-13T21:25:15.701Z,4.50
2019-03-13T21:27:42.911Z,7.03
2019-03-13T21:30:25.375Z,4.53
2019-03-13T21:32:52.869Z,5.37
2019-03-13T21:35:20.429Z,6.63
2019-03-13T21:37:47.880Z,4.27
2019-03-13T21:40:20.487Z,5.63
2019-03-13T21:42:47.649Z,6.23
2019-03-13T21:45:22.593Z,5.27
2019-03-13T21:47:44.190Z,7.27
2019-03-13T21:50:16.827Z,4.80
2019-03-13T21:52:44.108Z,5.30
2019-03-13T21:55:14.608Z,7.70
2019-03-13T21:57:41.791Z,8.50
2019-03-13T22:00:36.684Z,5.87
2019-03-13T22:03:03.819Z,5.87
2019-03-13T22:05:31.426Z,11.80
2019-03-13T22:07:58.567Z,10.83
2019-03-13T22:10:25.813Z,8.87
2019-03-13T22:12:53.025Z,10.43
2019-03-13T22:15:22.065Z,11.20
2019-03-13T22:17:49.383Z,10.47
2019-03-13T22:20:17.646Z,11.10
2019-03-13T22:22:44.854Z,2.43
2019-03-13T22:25:17.144Z,5.57
2019-03-13T22:27:44.505Z,1.70
2019-03-13T22:30:22.028Z,1.70
2019-03-13T22:32:49.123Z,4.13
2019-03-13T22:35:16.506Z,3.17
2019-03-13T22:37:43.623Z,3.13
2019-03-13T22:40:15.783Z,5.33
2019-03-13T22:42:42.982Z,1.67
2019-03-13T22:45:13.805Z,1.33
2019-03-13T22:47:42.870Z,2.60
2019-03-13T22:50:21.783Z,3.87
2019-03-13T22:52:49.005Z,3.17
2019-03-13T22:55:16.351Z,2.57
2019-03-13T22:57:43.964Z,3.17
2019-03-13T23:00:35.409Z,4.40
2019-03-13T23:03:02.651Z,2.10
2019-03-13T23:05:30.263Z,2.20
2019-03-13T23:07:57.425Z,2.70
2019-03-13T23:10:31.744Z,2.70
2019-03-13T23:12:58.987Z,1.40
2019-03-13T23:15:26.144Z,2.63
2019-03-13T23:17:53.303Z,1.87
2019-03-13T23:20:20.584Z,1.83
2019-03-13T23:22:47.784Z,1.83
2019-03-13T23:25:14.928Z,5.30
2019-03-13T23:27:42.104Z,3.63
2019-03-13T23:30:10.963Z,3.70
2019-03-13T23:32:38.083Z,2.40
2019-03-13T23:35:05.423Z,3.47
2019-03-13T23:37:32.605Z,1.30
2019-03-13T23:40:00.163Z,1.60
2019-03-13T23:42:27.365Z,3.67
2019-03-13T23:44:54.964Z,2.53
2019-03-13T23:47:22.664Z,3.70
2019-03-13T23:49:49.864Z,5.87
2019-03-13T23:52:17.009Z,4.50
2019-03-13T23:54:44.184Z,7.90
2019-03-13T23:57:12.191Z,2.70
2019-03-13T23:59:39.424Z,2.63
